Accueil
METAR-TAF:

METAR-TAF

Aéroports :

Aéroport de Wabush

Wabush, Terre-Neuve-et-Labrador, Canada

latitude: 52-56N, longitude: 066-52W, altitude: 551 m

Observation

Le bulletin a été fait il y a 56 minutes, à 13:00 UTC
Vent calme
Température 9°C
Humidité 53%
Pression 1020 hPa
Visibilité: 24.1 km
Nuages fragmentés à une hauteur de 26000 ft

METAR: CYWK 231300Z 00000KT 15SM BKN260 09/00 A3013 RMK CI6 SLP225

Heure: 10:56 (13:56 UTC)

Prévision

Le bulletin a été fait il y a 18 minutes, à 13:38 UTC
Prévision valable du 23 à 14 UTC au 24 à 02 UTC
Vent 3 kt de direction variable
Visibilité: 10 km
Nuages fragmentés à une hauteur de 24000 ft
Evoluant progressivement
du 23 à 14 UTC au 23 à 16 UTC
Vent 5 kt de sud
Evoluant progressivement
du 23 à 20 UTC au 23 à 22 UTC
Vent 3 kt de direction variable

TAF: CYWK 231338Z 2314/2402 VRB03KT P6SM BKN240 BECMG 2314/2316 18005KT BECMG 2320/2322 VRB03KT RMK NXT FCST BY 232000Z

Observations et prévisions météorologiques de plus de 4000 aéroports (messages METAR et TAF).

Les stations disponibles sont représentées par des disques jaunes et rouges sur la carte.

Passer la souris dessus pour voir le nom de la station.

Cliquer dessus pour voir les observations et prévisions météorologiques.

Pour changer de carte: cliquez sur les boutons verts avec une croix noire pour zoomer, sur le bouton vert avec un tiret pour effectuer un zoom arrière, ou sur les flèches vertes pour les cartes adjacentes.


METAR-TAF: